Limestone, TN

8:30 AM EDT on August 21, 2014 (GMT -0400)
Virginia Highlands | Change Station
CLOSE
Current Station
Airport
Location: Abingdon,
Elevation: 2070 ft
Nearby Weather Stations
Active Advisory: Special Statement

Elev 2070 ft 36.69 °N, 82.03 °W | Updated 15 minutes ago

Scattered Clouds
Scattered Clouds
67 °F
Feels Like 67 °F
N
0
Wind Variable Wind from North

Today
High -- | Low -- °F
--% Chance of Precip.
Yesterday
High -- | Low -- °F
Precip. -- in
6:53 AM 8:13 PM
Waning Crescent, 14% visible
Pressure 30.21 in
Visibility 3.0 miles
Clouds Scattered Clouds 300 ft
Dew Point 67 °F
Humidity 99%
Rainfall 0.00 in
Snow Depth Not available.
UV 1 out of 12
Pollen 8.50 out of 12
Air Quality Not available.
Flu Activity Not available.
METAR KVJI 211215Z AUTO 00000KT 3SM BR SCT003 20/20 A3021 RMK AO2 T01960195

More Conditions Fewer Conditions

Pressure 30.21 in
Visibility 3.0 miles
Clouds Scattered Clouds 300 ft
Dew Point 67 °F
Humidity 99%
Rainfall 0.00 in
Snow Depth Not available.
UV 1 out of 12
Pollen 8.50 out of 12
Air Quality Not available.
Flu Activity Not available.
METAR KVJI 211215Z AUTO 00000KT 3SM BR SCT003 20/20 A3021 RMK AO2 T01960195

More Conditions Fewer Conditions

10-Day Weather Forecast

Almanac

Astronomy

Aug. 21, 2014 Rise Set
Actual Time 6:53 AM EDT 8:13 PM EDT
Civil Twilight 6:26 AM EDT 8:39 PM EDT
Nautical Twilight 5:54 AM EDT 9:11 PM EDT
Astronomical Twilight 5:20 AM EDT 9:45 PM EDT
Moon 3:25 AM EDT 5:38 PM EDT
Length of Visible Light 14h 13m
Length of Day
13h 19m
Tomorrow will be 2m 6s shorter.
Waning Crescent, 14% of the Moon is Illuminated
Today
Waning Crescent
Aug 25
New
Sep 2
First Quarter
Sep 8
Full
Sep 15
Last Quarter

Today's Extremes

State Highs State Lows

Community

WunderPhotos

Upload Photos

1,745,892 photos uploaded!

WunderBlogs® & News

Nearby

Snow Depth

Station Depth Elevation
No new snow has been reported.

Earthquake Activity

City Distance Mag. Time & Date
No recent earthquake activity has been reported nearby.
Minimum magnitude displayed is 2.5.

Coastal Water Temperatures

Place Temperature
No Stations Reporting

Nearby Weather Stations